Tokeneke, Connecticut
Current Conditions -  °F | °C
As of 7:56 PM on Wednesday 22 Oct 2014 (Local Time) from KHPN Reporting Station
Moderate Rain Moderate Rain  
Wind Chill: 11°   Ceiling: 2500
Heat Index: 11°   Visibility: 3mi
Dew Point:   Wind: 20mph
Humidity: 86%   Direction: 350°N
Pressure: 29.77"   Gusts: 33mph
Location:  41.0804°N, 73.4823°W
Report Text: KHPN 222356Z 35017G29KT 3SM RA BR SCT015 OVC025 11/08 A2977 RMK AO2 PK WND 01030/2335 SLP081 P0007 60015 T01060083 10128 20106 58015
Loading
Personal Weather Stations






























Interactive Weather Map
Tropical Storm Tracking
New forecast layout! Learn more

10-Day Weather Forecast

Advertisements
Track Severe Weather on mobile